METAR Data
IDs: Format: Raw Decoded Include TAF

Data at: 1031 UTC 26 Sep 2018

KLXN 261015Z AUTO 29005KT 10SM CLR 04/02 A3029 RMK AO2 T00360022
KLXN 260955Z AUTO 00000KT 10SM CLR 04/02 A3028 RMK AO2 T00380023
KLXN 260935Z AUTO 31004KT 10SM CLR 04/03 A3029 RMK AO2 T00430027
KLXN 260915Z AUTO 00000KT 10SM CLR 04/03 A3029 RMK AO2 T00440029
KLXN 260855Z AUTO 32004KT 10SM CLR 05/03 A3029 RMK AO2 T00470031
KLXN 260835Z AUTO 31005KT 10SM CLR 05/03 A3029 RMK AO2 T00500034
KLXN 260815Z AUTO 29004KT 10SM CLR 05/03 A3030 RMK AO2 T00480032
KLXN 260755Z AUTO 00000KT 10SM CLR 05/04 A3030 RMK AO2 T00520035
KLXN 260735Z AUTO 31006KT 10SM CLR 05/04 A3030 RMK AO2 T00540035
KLXN 260715Z AUTO 29004KT 10SM CLR 05/03 A3030 RMK AO2 T00490031
KLXN 260655Z AUTO 29006KT 10SM CLR 05/03 A3030 RMK AO2 T00500031
KLXN 260635Z AUTO 28005KT 10SM CLR 06/04 A3030 RMK AO2 T00550037
KLXN 260615Z AUTO 29004KT 10SM CLR 05/04 A3030 RMK AO2 T00510035
KLXN 260555Z AUTO 30004KT 10SM CLR 05/04 A3029 RMK AO2 T00540035 10167 20053 401960053
KLXN 260535Z AUTO 30004KT 10SM CLR 06/04 A3029 RMK AO2 T00550035
KLXN 260515Z AUTO 31004KT 10SM CLR 06/04 A3028 RMK AO2 T00610038
KLXN 260455Z AUTO 29005KT 10SM CLR 07/04 A3027 RMK AO2 T00650041
KLXN 260435Z AUTO 28005KT 10SM CLR 06/04 A3027 RMK AO2 T00640041
KLXN 260415Z AUTO 00000KT 10SM CLR 07/04 A3026 RMK AO2 T00660040
KLXN 260355Z AUTO 26003KT 10SM CLR 07/05 A3025 RMK AO2 T00700047
KLXN 260335Z AUTO 00000KT 10SM CLR 07/05 A3025 RMK AO2 T00740046
KLXN 260315Z AUTO 00000KT 10SM CLR 07/05 A3024 RMK AO2 T00740045
KLXN 260255Z AUTO 00000KT 10SM CLR 08/05 A3024 RMK AO2 T00790047
KLXN 260235Z AUTO 24003KT 10SM CLR 08/05 A3024 RMK AO2 T00780045
KLXN 260215Z AUTO 00000KT 10SM CLR 09/05 A3023 RMK AO2 T00900045
KLXN 260155Z AUTO 00000KT 10SM CLR 10/05 A3022 RMK AO2 T01000047
KLXN 260135Z AUTO 00000KT 10SM CLR 10/05 A3021 RMK AO2 T01030052
KLXN 260115Z AUTO 00000KT 7SM CLR 11/05 A3021 RMK AO2 T01120050
KLXN 260055Z AUTO 01003KT 10SM CLR 13/04 A3020 RMK AO2 T01310041
KLXN 260035Z AUTO 01004KT 10SM CLR 14/04 A3019 RMK AO2 T01390035
KLXN 260015Z AUTO 01004KT 10SM CLR 15/03 A3018 RMK AO2 T01540030
KLXN 252355Z AUTO 36008KT 10SM CLR 17/02 A3017 RMK AO2 T01680016 10196 20168
KLXN 252335Z AUTO 35011G16KT 10SM CLR 18/01 A3016 RMK AO2 T01750014
KLXN 252315Z AUTO 35015G18KT 10SM CLR 18/01 A3016 RMK AO2 T01800014
KLXN 252255Z AUTO 36014G18KT 10SM CLR 19/01 A3015 RMK AO2 T01850012
KLXN 252235Z AUTO 35015G21KT 10SM CLR 19/02 A3015 RMK AO2 T01870015
KLXN 252215Z AUTO 34014G19KT 10SM CLR 19/02 A3014 RMK AO2 T01860022
KLXN 252155Z AUTO 35014G20KT 10SM SCT065 19/02 A3014 RMK AO2 T01890021
KLXN 252135Z AUTO 35015G22KT 10SM SCT065 20/03 A3013 RMK AO2 T01950026
KLXN 252115Z AUTO 34016G24KT 10SM CLR 19/03 A3013 RMK AO2 T01860033
KLXN 252055Z AUTO 34018G23KT 10SM SCT060 20/03 A3012 RMK AO2 T01960032
KLXN 252035Z AUTO 33018G21KT 10SM SCT050 19/04 A3012 RMK AO2 T01890041
KLXN 252015Z AUTO 34013G20KT 10SM BKN050 18/05 A3012 RMK AO2 T01830045
KLXN 251955Z AUTO 35015G25KT 10SM SCT050 BKN060 19/04 A3012 RMK AO2 T01890043
KLXN 251935Z AUTO 34015G21KT 10SM SCT049 SCT055 17/05 A3013 RMK AO2 T01740050
KLXN 251915Z AUTO 33016G20KT 10SM SCT049 SCT055 18/06 A3013 RMK AO2 T01810056
KLXN 251855Z AUTO 34015G22KT 10SM BKN047 BKN055 18/06 A3014 RMK AO2 T01790057
KLXN 251835Z AUTO 35013G23KT 10SM BKN047 17/06 A3014 RMK AO2 T01740064
KLXN 251815Z AUTO 36014G21KT 10SM SCT041 BKN049 17/07 A3014 RMK AO2 T01710070
KLXN 251755Z AUTO 34016G21KT 10SM SCT040 BKN046 BKN055 17/07 A3014 RMK AO2 T01670072 10170 20118
KLXN 251735Z AUTO 34016G21KT 10SM SCT036 BKN044 16/08 A3014 RMK AO2 T01620075
KLXN 251715Z AUTO 34015G21KT 10SM SCT035 OVC041 16/07 A3014 RMK AO2 T01600073
KLXN 251655Z AUTO 34016G23KT 10SM BKN036 OVC043 16/07 A3014 RMK AO2 T01550073
KLXN 251635Z AUTO 35020G25KT 10SM BKN032 BKN038 16/08 A3014 RMK AO2 T01550080
KLXN 251615Z AUTO 36016G25KT 10SM SCT026 BKN032 16/08 A3013 RMK AO2 T01560080
KLXN 251555Z AUTO 35014G20KT 10SM BKN025 BKN030 15/08 A3013 RMK AO2 T01460083
KLXN 251535Z AUTO 34018G25KT 10SM BKN023 OVC029 14/08 A3012 RMK AO2 T01360081
KLXN 251515Z AUTO 34018G25KT 10SM BKN021 OVC100 13/08 A3011 RMK AO2 T01310081
KLXN 251455Z AUTO 33016G21KT 10SM BKN019 BKN100 14/10 A3010 RMK AO2 T01360097
KLXN 251435Z AUTO 33011KT 10SM SCT015 SCT050 BKN100 13/10 A3008 RMK AO2 T01340101
KLXN 251415Z AUTO 35014G18KT 10SM SCT017 SCT021 OVC050 13/10 A3006 RMK AO2 T01320101
KLXN 251355Z AUTO 34013KT 10SM BKN017 OVC049 13/10 A3006 RMK AO2 T01250099
KLXN 251335Z AUTO 34013G17KT 10SM BKN013 BKN018 OVC049 13/11 A3006 RMK AO2 T01250105
KLXN 251315Z AUTO 35009G14KT 10SM BKN013 BKN020 OVC043 12/11 A3005 RMK AO2 T01230105
KLXN 251255Z AUTO 34009KT 10SM SCT011 SCT019 OVC043 12/11 A3005 RMK AO2 LTG DSNT E T01230106
KLXN 251235Z AUTO 35007KT 10SM SCT018 BKN045 OVC065 12/11 A3004 RMK AO2 LTG DSNT E T01200108
KLXN 251215Z AUTO 34009KT 10SM VCTS SCT007 BKN024 OVC100 12/11 A3003 RMK AO2 T01180106
KLXN 251155Z AUTO 35010G14KT 7SM -RA BKN007 BKN024 OVC060 12/11 A3002 RMK AO2 LTG DSNT NE AND E P0017 60017 70020 T01200108 10135 20115
KLXN 251135Z AUTO 29007G19KT 5SM +RA OVC007 12/11 A3005 RMK AO2 LTG DSNT N THRU S P0005 T01230108
KLXN 251115Z AUTO 34010G19KT 10SM OVC005 12/11 A2999 RMK AO2 LTG DSNT NE SW AND W T01210105
KLXN 251055Z AUTO 01011KT 10SM OVC005 12/11 A2997 RMK AO2 T01200105
KLXN 251035Z AUTO 02011KT 10SM OVC005 12/11 A2995 RMK AO2 T01210106
KLXN 251015Z AUTO 01009KT 10SM OVC005 12/11 A2996 RMK AO2 LTG DSNT N T01210106
KLXN 250955Z AUTO 01007KT 10SM OVC005 12/11 A2995 RMK AO2 T01210106
KLXN 250935Z AUTO 36006KT 10SM OVC005 12/11 A2994 RMK AO2 T01210106
KLXN 250915Z AUTO 04007KT 10SM OVC005 12/11 A2990 RMK AO2 T01200105
KLXN 250855Z AUTO 01005KT 10SM BKN007 12/10 A2990 RMK AO2 T01160103
KLXN 250835Z AUTO 05005KT 10SM SCT007 12/10 A2989 RMK AO2 T01150101
KLXN 250815Z AUTO 08007KT 10SM CLR 12/10 A2988 RMK AO2 T01170102
KLXN 250755Z AUTO 11006KT 10SM CLR 12/10 A2988 RMK AO2 T01200103
KLXN 250735Z AUTO 10006KT 10SM CLR 12/10 A2988 RMK AO2 T01210102
KLXN 250715Z AUTO 11007KT 10SM CLR 12/10 A2989 RMK AO2 T01230103
KLXN 250655Z AUTO 10008KT 10SM SCT049 13/10 A2990 RMK AO2 T01250102
KLXN 250635Z AUTO 09005KT 10SM SCT049 13/10 A2991 RMK AO2 T01280103
KLXN 250615Z AUTO 09007KT 10SM CLR 13/10 A2992 RMK AO2 LTG DSNT NW T01300104
KLXN 250555Z AUTO 07007KT 10SM CLR 14/11 A2993 RMK AO2 T01350105 10195 20135 402270135
KLXN 250535Z AUTO 05007KT 10SM CLR 14/11 A2994 RMK AO2 T01400106
KLXN 250515Z AUTO 03005KT 10SM CLR 15/11 A2996 RMK AO2 T01450108
KLXN 250455Z AUTO 05007KT 10SM CLR 15/11 A2995 RMK AO2 T01470107
KLXN 250435Z AUTO 06009KT 10SM CLR 15/11 A2992 RMK AO2 T01500107
KLXN 250415Z AUTO 05007KT 10SM CLR 16/11 A2993 RMK AO2 T01550106
KLXN 250355Z AUTO 05007KT 10SM CLR 16/10 A2992 RMK AO2 T01570104
KLXN 250335Z AUTO 04004KT 10SM CLR 16/11 A2992 RMK AO2 T01600105
KLXN 250315Z AUTO 03003KT 10SM CLR 16/10 A2992 RMK AO2 T01580104
KLXN 250255Z AUTO 04004KT 10SM CLR 16/10 A2990 RMK AO2 T01580103
KLXN 250235Z AUTO 02004KT 10SM CLR 16/10 A2990 RMK AO2 T01590103
KLXN 250215Z AUTO 36005KT 10SM CLR 16/10 A2990 RMK AO2 T01600102
KLXN 250155Z AUTO 02005KT 10SM CLR 17/10 A2990 RMK AO2 T01650101
KLXN 250135Z AUTO 02004KT 10SM CLR 17/10 A2989 RMK AO2 T01670102
KLXN 250115Z AUTO 01005KT 10SM CLR 17/10 A2989 RMK AO2 T01680103
KLXN 250055Z AUTO 03006KT 10SM CLR 17/10 A2987 RMK AO2 T01710101
KLXN 250035Z AUTO 05006KT 10SM CLR 18/10 A2986 RMK AO2 T01750102
KLXN 250015Z AUTO 03005KT 10SM CLR 18/10 A2987 RMK AO2 T01820103
KLXN 242355Z AUTO 09009KT 10SM CLR 20/10 A2985 RMK AO2 T01950099 10227 20181
KLXN 242335Z AUTO 08008KT 10SM CLR 21/10 A2986 RMK AO2 T02100102
KLXN 242315Z AUTO 04008KT 10SM CLR 21/09 A2986 RMK AO2 T02140094
KLXN 242255Z AUTO 05008KT 10SM CLR 22/09 A2986 RMK AO2 T02200091
KLXN 242235Z AUTO 06010KT 10SM CLR 21/09 A2985 RMK AO2 T02130094